createdAt,value
2018-03-21T00:00:39.896Z,29.36
2018-03-21T00:01:39.908Z,29.36
2018-03-21T00:02:39.890Z,29.36
2018-03-21T00:03:39.892Z,29.27
2018-03-21T00:04:39.884Z,29.27
2018-03-21T00:05:39.876Z,29.27
2018-03-21T00:06:39.865Z,29.17
2018-03-21T00:07:39.866Z,29.27
2018-03-21T00:08:39.853Z,29.36
2018-03-21T00:09:39.860Z,29.27
2018-03-21T00:10:39.848Z,29.27
2018-03-21T00:11:39.837Z,29.27
2018-03-21T00:12:39.838Z,29.27
2018-03-21T00:13:39.839Z,29.25
2018-03-21T00:14:39.821Z,29.27
2018-03-21T00:15:39.832Z,29.17
2018-03-21T00:16:39.810Z,28.97
2018-03-21T00:17:39.821Z,29.07
2018-03-21T00:18:39.807Z,28.97
2018-03-21T00:19:39.800Z,28.97
2018-03-21T00:20:39.796Z,29.07
2018-03-21T00:21:39.792Z,29.07
2018-03-21T00:22:39.783Z,28.97
2018-03-21T00:23:39.787Z,29.27
2018-03-21T00:24:39.771Z,29.27
2018-03-21T00:25:39.771Z,29.36
2018-03-21T00:26:39.781Z,29.17
2018-03-21T00:27:39.752Z,29.07
2018-03-21T00:28:39.746Z,29.17
2018-03-21T00:29:39.746Z,29.07
2018-03-21T00:30:39.745Z,28.88
2018-03-21T00:31:39.731Z,28.97
2018-03-21T00:32:39.735Z,29.07
2018-03-21T00:33:39.727Z,28.78
2018-03-21T00:34:39.723Z,28.97
2018-03-21T00:35:39.713Z,29.17
2018-03-21T00:36:39.710Z,29.07
2018-03-21T00:37:39.695Z,28.97
2018-03-21T00:38:39.692Z,29.17
2018-03-21T00:39:39.701Z,29.07
2018-03-21T00:40:39.701Z,28.97
2018-03-21T00:41:39.681Z,29.36
2018-03-21T00:42:39.685Z,29.27
2018-03-21T00:43:39.674Z,29.07
2018-03-21T00:44:39.666Z,29.17
2018-03-21T00:45:39.662Z,29.07
2018-03-21T00:46:39.661Z,29.17
2018-03-21T00:47:39.645Z,29.07
2018-03-21T00:48:39.649Z,29.07
2018-03-21T00:49:39.644Z,29.07
2018-03-21T00:50:39.622Z,28.97
2018-03-21T00:51:39.636Z,29.07
2018-03-21T00:52:39.626Z,29.17
2018-03-21T00:53:39.608Z,29.07
2018-03-21T00:54:39.607Z,29.07
2018-03-21T00:55:39.599Z,29.17
2018-03-21T00:56:39.600Z,29.07
2018-03-21T00:57:39.601Z,28.78
2018-03-21T00:58:39.591Z,29.07
2018-03-21T00:59:39.581Z,29.07
2018-03-21T01:00:39.583Z,29.07
2018-03-21T01:01:39.596Z,29.17
2018-03-21T01:02:39.573Z,28.78
2018-03-21T01:03:39.561Z,28.97
2018-03-21T01:04:39.551Z,29.27
2018-03-21T01:05:39.556Z,29.27
2018-03-21T01:06:39.545Z,28.97
2018-03-21T01:07:39.566Z,29.27
2018-03-21T01:08:39.528Z,28.97
2018-03-21T01:09:39.532Z,29.36
2018-03-21T01:10:39.525Z,29.17
2018-03-21T01:11:39.526Z,28.78
2018-03-21T01:12:39.521Z,28.97
2018-03-21T01:13:39.502Z,29.17
2018-03-21T01:14:39.507Z,29.17
2018-03-21T01:15:39.502Z,29.17
2018-03-21T01:16:39.497Z,29.07
2018-03-21T01:17:39.488Z,29.17
2018-03-21T01:18:39.476Z,28.97
2018-03-21T01:19:39.489Z,29.17
2018-03-21T01:20:39.478Z,28.97
2018-03-21T01:21:39.472Z,29.07
2018-03-21T01:22:39.461Z,29.07
2018-03-21T01:23:39.463Z,29.07
2018-03-21T01:24:39.469Z,28.97
2018-03-21T01:25:39.447Z,28.88
2018-03-21T01:26:39.442Z,29.07
2018-03-21T01:27:39.434Z,29.07
2018-03-21T01:28:39.424Z,29.17
2018-03-21T01:29:39.445Z,29.07
2018-03-21T01:30:39.433Z,29.07
2018-03-21T01:31:39.421Z,29.07
2018-03-21T01:32:39.404Z,29.07
2018-03-21T01:33:39.401Z,29.07
2018-03-21T01:34:39.410Z,28.88
2018-03-21T01:35:39.394Z,29.07
2018-03-21T01:36:39.384Z,29.17
2018-03-21T01:37:39.382Z,29.07
2018-03-21T01:38:39.373Z,28.97
2018-03-21T01:39:39.375Z,29.07
2018-03-21T01:40:39.362Z,29.17
2018-03-21T01:41:39.359Z,28.97
2018-03-21T01:42:39.362Z,29.17
2018-03-21T01:43:39.367Z,29.36
2018-03-21T01:44:39.351Z,29.27
2018-03-21T01:45:39.338Z,29.55
2018-03-21T01:46:39.323Z,29.07
2018-03-21T01:47:39.339Z,28.78
2018-03-21T01:48:39.320Z,28.88
2018-03-21T01:49:39.321Z,29.07
2018-03-21T01:50:39.303Z,28.97
2018-03-21T01:51:39.310Z,28.97
2018-03-21T01:52:39.302Z,29.27
2018-03-21T01:53:39.292Z,29.17
2018-03-21T01:54:39.291Z,29.07
2018-03-21T01:55:39.289Z,29.17
2018-03-21T01:56:39.276Z,29.07
2018-03-21T01:57:39.274Z,28.97
2018-03-21T01:58:39.269Z,29.07
2018-03-21T01:59:39.257Z,28.97
2018-03-21T02:00:39.254Z,29.17
2018-03-21T02:01:39.265Z,29.17
2018-03-21T02:02:39.248Z,29.36
2018-03-21T02:03:39.250Z,29.17
2018-03-21T02:04:39.239Z,29.17
2018-03-21T02:05:39.238Z,29.07
2018-03-21T02:06:39.228Z,29.17
2018-03-21T02:07:39.218Z,29.17
2018-03-21T02:08:39.208Z,28.97
2018-03-21T02:09:39.217Z,29.27
2018-03-21T02:10:39.204Z,29.27
2018-03-21T02:11:39.199Z,28.78
2018-03-21T02:12:39.186Z,28.88
2018-03-21T02:13:39.188Z,29.07
2018-03-21T02:14:39.182Z,29.17
2018-03-21T02:15:39.180Z,29.17
2018-03-21T02:16:39.169Z,28.97
2018-03-21T02:17:39.171Z,28.97
2018-03-21T02:18:39.159Z,29.07
2018-03-21T02:19:39.158Z,28.97
2018-03-21T02:20:39.151Z,28.88
2018-03-21T02:21:39.151Z,28.97
2018-03-21T02:22:39.153Z,28.97
2018-03-21T02:23:39.122Z,29.07
2018-03-21T02:24:39.126Z,28.97
2018-03-21T02:25:39.112Z,28.88
2018-03-21T02:26:39.116Z,28.97
2018-03-21T02:27:39.174Z,28.88
2018-03-21T02:28:39.107Z,29.07
2018-03-21T02:29:39.100Z,28.88
2018-03-21T02:30:39.138Z,28.69
2018-03-21T02:31:39.084Z,28.69
2018-03-21T02:32:39.093Z,28.88
2018-03-21T02:33:39.080Z,28.59
2018-03-21T02:34:39.075Z,28.69
2018-03-21T02:35:39.077Z,28.02
2018-03-21T02:36:39.060Z,28.69
2018-03-21T02:37:39.064Z,28.69
2018-03-21T02:38:39.050Z,28.59
2018-03-21T02:39:39.054Z,28.59
2018-03-21T02:40:39.039Z,28.59
2018-03-21T02:41:39.031Z,28.11
2018-03-21T02:42:39.037Z,28.20
2018-03-21T02:43:39.029Z,28.20
2018-03-21T02:44:39.020Z,28.11
2018-03-21T02:45:39.015Z,28.59
2018-03-21T02:46:39.005Z,28.49
2018-03-21T02:47:39.008Z,28.69
2018-03-21T02:48:39.015Z,28.02
2018-03-21T02:49:39.003Z,28.69
2018-03-21T02:50:38.988Z,28.69
2018-03-21T02:51:38.980Z,29.07
2018-03-21T02:52:38.983Z,28.69
2018-03-21T02:53:38.972Z,28.69
2018-03-21T02:54:38.968Z,28.88
2018-03-21T02:55:38.961Z,28.88
2018-03-21T02:56:38.954Z,28.69
2018-03-21T02:57:38.953Z,28.69
2018-03-21T02:58:38.940Z,29.07
2018-03-21T02:59:38.943Z,28.69
2018-03-21T03:00:38.933Z,28.78
2018-03-21T03:01:38.933Z,28.69
2018-03-21T03:02:38.923Z,28.97
2018-03-21T03:03:38.910Z,29.07
2018-03-21T03:04:38.913Z,28.97
2018-03-21T03:05:38.920Z,29.07
2018-03-21T03:06:38.898Z,28.88
2018-03-21T03:07:38.894Z,29.07
2018-03-21T03:08:38.888Z,28.88
2018-03-21T03:09:38.890Z,29.27
2018-03-21T03:10:38.878Z,29.27
2018-03-21T03:11:38.877Z,29.07
2018-03-21T03:12:38.863Z,28.88
2018-03-21T03:13:38.880Z,28.78
2018-03-21T03:14:38.859Z,28.97
2018-03-21T03:15:38.843Z,28.97
2018-03-21T03:16:38.844Z,28.88
2018-03-21T03:17:38.839Z,29.07
2018-03-21T03:18:38.834Z,28.97
2018-03-21T03:19:38.833Z,29.07
2018-03-21T03:20:38.820Z,28.88
2018-03-21T03:21:38.819Z,29.17
2018-03-21T03:22:38.817Z,28.88
2018-03-21T03:23:38.808Z,28.88
2018-03-21T03:24:38.803Z,29.07
2018-03-21T03:25:38.804Z,29.07
2018-03-21T03:26:38.789Z,29.07
2018-03-21T03:27:38.787Z,28.97
2018-03-21T03:28:38.778Z,28.97
2018-03-21T03:29:38.782Z,28.88
2018-03-21T03:30:38.766Z,29.07
2018-03-21T03:31:38.764Z,28.88
2018-03-21T03:32:38.759Z,28.88
2018-03-21T03:33:38.750Z,29.06
2018-03-21T03:34:38.768Z,29.06
2018-03-21T03:35:38.738Z,29.06
2018-03-21T03:36:38.736Z,29.06
2018-03-21T03:37:38.735Z,28.96
2018-03-21T03:38:38.728Z,29.07
2018-03-21T03:39:38.733Z,29.06
2018-03-21T03:40:38.719Z,29.06
2018-03-21T03:41:38.700Z,29.06
2018-03-21T03:42:38.723Z,29.07
2018-03-21T03:43:38.703Z,28.86
2018-03-21T03:44:38.688Z,28.96
2018-03-21T03:45:38.689Z,29.07
2018-03-21T03:46:38.680Z,29.06
2018-03-21T03:47:38.674Z,28.97
2018-03-21T03:48:38.664Z,29.07
2018-03-21T03:49:38.678Z,28.96
2018-03-21T03:50:38.665Z,28.88
2018-03-21T03:51:38.660Z,28.97
2018-03-21T03:52:38.652Z,28.88
2018-03-21T03:53:38.645Z,28.86
2018-03-21T03:54:38.638Z,28.86
2018-03-21T03:55:38.639Z,28.96
2018-03-21T03:56:38.629Z,28.86
2018-03-21T03:57:38.630Z,28.69
2018-03-21T03:58:38.620Z,28.59
2018-03-21T03:59:38.625Z,28.88
2018-03-21T04:00:38.606Z,28.59
2018-03-21T04:01:38.605Z,28.02
2018-03-21T04:02:38.593Z,28.69
2018-03-21T04:03:38.597Z,28.69
2018-03-21T04:04:38.585Z,28.59
2018-03-21T04:05:38.583Z,28.20
2018-03-21T04:06:38.585Z,28.59
2018-03-21T04:07:38.574Z,28.11
2018-03-21T04:08:38.564Z,28.59
2018-03-21T04:09:38.561Z,28.20
2018-03-21T04:10:38.564Z,28.30
2018-03-21T04:11:38.547Z,28.30
2018-03-21T04:12:38.540Z,28.20
2018-03-21T04:13:38.534Z,28.40
2018-03-21T04:14:38.533Z,28.88
2018-03-21T04:15:38.532Z,28.20
2018-03-21T04:16:38.523Z,28.59
2018-03-21T04:17:38.518Z,28.40
2018-03-21T04:18:38.514Z,28.30
2018-03-21T04:19:38.506Z,28.20
2018-03-21T04:20:38.510Z,28.30
2018-03-21T04:21:38.505Z,28.49
2018-03-21T04:22:38.488Z,28.49
2018-03-21T04:23:38.491Z,28.49
2018-03-21T04:24:38.490Z,28.30
2018-03-21T04:25:38.478Z,28.30
2018-03-21T04:26:38.470Z,28.30
2018-03-21T04:27:38.473Z,28.20
2018-03-21T04:28:38.470Z,28.30
2018-03-21T04:29:38.451Z,28.30
2018-03-21T04:30:38.447Z,28.20
2018-03-21T04:31:38.444Z,28.30
2018-03-21T04:32:38.431Z,28.40
2018-03-21T04:33:38.445Z,28.20
2018-03-21T04:34:38.430Z,28.30
2018-03-21T04:35:38.423Z,28.49
2018-03-21T04:36:38.411Z,28.20
2018-03-21T04:37:38.406Z,28.20
2018-03-21T04:38:38.410Z,28.20
2018-03-21T04:39:38.398Z,28.40
2018-03-21T04:40:38.389Z,28.30
2018-03-21T04:41:38.381Z,28.20
2018-03-21T04:42:38.376Z,28.30
2018-03-21T04:43:38.381Z,28.40
2018-03-21T04:44:38.383Z,28.49
2018-03-21T04:45:38.356Z,28.40
2018-03-21T04:46:38.364Z,28.49
2018-03-21T04:47:38.361Z,28.49
2018-03-21T04:48:38.355Z,28.40
2018-03-21T04:49:38.356Z,28.30
2018-03-21T04:50:38.339Z,28.49
2018-03-21T04:51:38.337Z,28.49
2018-03-21T04:52:38.324Z,28.40
2018-03-21T04:53:38.320Z,28.40
2018-03-21T04:54:38.322Z,28.30
2018-03-21T04:55:38.310Z,28.20
2018-03-21T04:56:38.309Z,28.49
2018-03-21T04:57:38.310Z,28.30
2018-03-21T04:58:38.295Z,28.59
2018-03-21T04:59:38.304Z,28.40
2018-03-21T05:00:38.282Z,28.20
2018-03-21T05:01:38.289Z,28.20
2018-03-21T05:02:38.272Z,28.11
2018-03-21T05:03:38.271Z,28.20
2018-03-21T05:04:38.260Z,28.30
2018-03-21T05:05:38.262Z,28.02
2018-03-21T05:06:38.259Z,28.20
2018-03-21T05:07:38.247Z,28.77
2018-03-21T05:08:38.245Z,28.67
2018-03-21T05:09:38.245Z,28.69
2018-03-21T05:10:38.226Z,28.59
2018-03-21T05:11:38.230Z,28.59
2018-03-21T05:12:38.225Z,28.11
2018-03-21T05:13:38.215Z,28.69
2018-03-21T05:14:38.216Z,28.77
2018-03-21T05:15:38.204Z,28.29
2018-03-21T05:16:38.199Z,28.67
2018-03-21T05:17:38.196Z,28.02
2018-03-21T05:18:38.190Z,28.59
2018-03-21T05:19:38.181Z,28.00
2018-03-21T05:20:38.184Z,28.67
2018-03-21T05:21:38.177Z,28.02
2018-03-21T05:22:38.162Z,28.20
2018-03-21T05:23:38.168Z,28.00
2018-03-21T05:24:38.155Z,28.19
2018-03-21T05:25:38.150Z,28.09
2018-03-21T05:26:38.145Z,28.19
2018-03-21T05:27:38.142Z,28.19
2018-03-21T05:28:38.141Z,28.20
2018-03-21T05:29:38.127Z,28.69
2018-03-21T05:30:38.126Z,28.20
2018-03-21T05:31:38.123Z,28.30
2018-03-21T05:32:38.110Z,28.30
2018-03-21T05:33:38.118Z,28.49
2018-03-21T05:34:38.099Z,28.19
2018-03-21T05:35:38.095Z,28.30
2018-03-21T05:36:38.100Z,28.30
2018-03-21T05:37:38.081Z,28.19
2018-03-21T05:38:38.077Z,28.19
2018-03-21T05:39:38.069Z,28.59
2018-03-21T05:40:38.072Z,28.40
2018-03-21T05:41:38.073Z,28.58
2018-03-21T05:42:38.065Z,28.40
2018-03-21T05:43:38.051Z,28.59
2018-03-21T05:44:38.050Z,28.48
2018-03-21T05:45:38.060Z,28.59
2018-03-21T05:46:38.056Z,28.59
2018-03-21T05:47:38.033Z,28.49
2018-03-21T05:48:38.040Z,28.59
2018-03-21T05:49:38.020Z,28.49
2018-03-21T05:50:38.011Z,28.59
2018-03-21T05:51:38.010Z,28.40
2018-03-21T05:52:38.006Z,28.49
2018-03-21T05:53:38.002Z,28.40
2018-03-21T05:54:37.998Z,28.49
2018-03-21T05:55:38.001Z,28.20
2018-03-21T05:56:37.983Z,28.20
2018-03-21T05:57:37.978Z,28.20
2018-03-21T05:58:37.979Z,28.20
2018-03-21T05:59:37.966Z,28.30
2018-03-21T06:00:37.963Z,28.02
2018-03-21T06:01:37.951Z,28.11
2018-03-21T06:02:37.951Z,28.02
2018-03-21T06:03:37.936Z,28.20
2018-03-21T06:04:37.941Z,28.30
2018-03-21T06:05:37.935Z,28.20
2018-03-21T06:06:37.935Z,28.30
2018-03-21T06:07:37.920Z,28.40
2018-03-21T06:08:37.927Z,28.30
2018-03-21T06:09:37.921Z,28.30
2018-03-21T06:10:37.923Z,28.30
2018-03-21T06:11:37.902Z,28.30
2018-03-21T06:12:37.902Z,28.11
2018-03-21T06:13:37.895Z,28.11
2018-03-21T06:14:37.888Z,28.20
2018-03-21T06:15:37.878Z,28.30
2018-03-21T06:16:37.876Z,28.40
2018-03-21T06:17:37.867Z,28.20
2018-03-21T06:18:37.868Z,28.49
2018-03-21T06:19:37.874Z,28.30
2018-03-21T06:20:37.862Z,28.20
2018-03-21T06:21:37.867Z,28.20
2018-03-21T06:22:37.841Z,28.40
2018-03-21T06:23:37.838Z,28.30
2018-03-21T06:24:37.841Z,28.30
2018-03-21T06:25:37.822Z,28.40
2018-03-21T06:26:37.820Z,28.30
2018-03-21T06:27:37.823Z,28.30
2018-03-21T06:28:37.813Z,28.11
2018-03-21T06:29:37.809Z,28.20
2018-03-21T06:30:37.812Z,28.40
2018-03-21T06:31:37.813Z,28.40
2018-03-21T06:32:37.783Z,28.30
2018-03-21T06:33:37.782Z,28.20
2018-03-21T06:34:37.778Z,28.49
2018-03-21T06:35:37.786Z,28.20
2018-03-21T06:36:37.770Z,28.02
2018-03-21T06:37:37.762Z,28.11
2018-03-21T06:38:37.763Z,28.20
2018-03-21T06:39:37.761Z,28.11
2018-03-21T06:40:37.747Z,28.02
2018-03-21T06:41:37.736Z,27.92
2018-03-21T06:42:37.741Z,27.83
2018-03-21T06:43:37.733Z,27.74
2018-03-21T06:44:37.757Z,27.93
2018-03-21T06:45:37.717Z,27.93
2018-03-21T06:46:37.709Z,27.72
2018-03-21T06:47:37.716Z,28.03
2018-03-21T06:48:37.700Z,27.93
2018-03-21T06:49:37.692Z,27.74
2018-03-21T06:50:37.683Z,27.93
2018-03-21T06:51:37.678Z,27.93
2018-03-21T06:52:37.683Z,27.93
2018-03-21T06:53:37.697Z,27.83
2018-03-21T06:54:37.667Z,28.03
2018-03-21T06:55:37.661Z,27.64
2018-03-21T06:56:37.647Z,27.64
2018-03-21T06:57:37.652Z,28.03
2018-03-21T06:58:37.649Z,27.93
2018-03-21T06:59:37.634Z,27.64
2018-03-21T07:00:37.633Z,27.74
2018-03-21T07:01:37.629Z,27.64
2018-03-21T07:02:37.624Z,27.55
2018-03-21T07:03:37.622Z,27.64
2018-03-21T07:04:37.654Z,27.55
2018-03-21T07:05:37.619Z,27.55
2018-03-21T07:06:37.599Z,27.64
2018-03-21T07:07:37.597Z,27.64
2018-03-21T07:08:37.596Z,27.35
2018-03-21T07:09:37.591Z,27.45
2018-03-21T07:10:37.588Z,27.55
2018-03-21T07:11:37.583Z,27.35
2018-03-21T07:12:37.582Z,27.45
2018-03-21T07:13:37.567Z,27.55
2018-03-21T07:14:37.554Z,27.64
2018-03-21T07:15:37.557Z,27.83
2018-03-21T07:16:37.547Z,27.83
2018-03-21T07:17:37.542Z,27.93
2018-03-21T07:18:37.550Z,27.92
2018-03-21T07:19:37.538Z,28.49
2018-03-21T07:20:37.531Z,28.61
2018-03-21T07:21:37.520Z,28.61
2018-03-21T07:22:37.524Z,28.40
2018-03-21T07:23:37.521Z,28.22
2018-03-21T07:24:37.509Z,28.40
2018-03-21T07:25:37.503Z,28.20
2018-03-21T07:26:37.504Z,28.31
2018-03-21T07:27:37.490Z,28.41
2018-03-21T07:28:37.487Z,28.41
2018-03-21T07:29:37.489Z,28.30
2018-03-21T07:30:37.488Z,28.40
2018-03-21T07:31:37.490Z,28.30
2018-03-21T07:32:37.484Z,28.20
2018-03-21T07:33:37.460Z,28.49
2018-03-21T07:34:37.470Z,28.20
2018-03-21T07:35:37.452Z,28.02
2018-03-21T07:36:37.453Z,28.69
2018-03-21T07:37:37.442Z,28.59
2018-03-21T07:38:37.437Z,28.88
2018-03-21T07:39:37.430Z,28.97
2018-03-21T07:40:37.422Z,28.88
2018-03-21T07:41:37.420Z,28.97
2018-03-21T07:42:37.428Z,28.69
2018-03-21T07:43:37.418Z,28.97
2018-03-21T07:44:37.408Z,28.78
2018-03-21T07:45:37.393Z,29.07
2018-03-21T07:46:37.408Z,29.07
2018-03-21T07:47:37.394Z,28.97
2018-03-21T07:48:37.374Z,29.17
2018-03-21T07:49:37.378Z,28.97
2018-03-21T07:50:37.373Z,29.07
2018-03-21T07:51:37.384Z,28.97
2018-03-21T07:52:37.373Z,29.07
2018-03-21T07:53:37.354Z,28.97
2018-03-21T07:54:37.355Z,28.78
2018-03-21T07:55:37.363Z,29.07
2018-03-21T07:56:37.345Z,29.17
2018-03-21T07:57:37.339Z,28.97
2018-03-21T07:58:37.329Z,28.96
2018-03-21T07:59:37.328Z,29.07
2018-03-21T08:00:37.313Z,29.25
2018-03-21T08:01:37.323Z,29.15
2018-03-21T08:02:37.323Z,29.35
2018-03-21T08:03:37.303Z,29.06
2018-03-21T08:04:37.298Z,29.06
2018-03-21T08:05:37.336Z,29.06
2018-03-21T08:06:37.290Z,29.07
2018-03-21T08:07:37.280Z,29.06
2018-03-21T08:08:37.292Z,28.77
2018-03-21T08:09:37.278Z,29.15
2018-03-21T08:10:37.269Z,28.86
2018-03-21T08:11:37.258Z,28.86
2018-03-21T08:12:37.261Z,28.88
2018-03-21T08:13:37.255Z,28.86
2018-03-21T08:14:37.254Z,28.77
2018-03-21T08:15:37.241Z,28.88
2018-03-21T08:16:37.244Z,28.77
2018-03-21T08:17:37.234Z,28.88
2018-03-21T08:18:37.221Z,28.77
2018-03-21T08:19:37.289Z,28.77
2018-03-21T08:20:37.211Z,28.69
2018-03-21T08:21:37.223Z,28.88
2018-03-21T08:22:37.200Z,28.69
2018-03-21T08:23:37.227Z,28.69
2018-03-21T08:24:37.185Z,28.58
2018-03-21T08:25:37.189Z,28.69
2018-03-21T08:26:37.175Z,28.78
2018-03-21T08:27:37.171Z,28.48
2018-03-21T08:28:37.182Z,28.69
2018-03-21T08:29:37.163Z,28.69
2018-03-21T08:30:37.167Z,28.49
2018-03-21T08:31:37.174Z,28.11
2018-03-21T08:32:37.139Z,28.02
2018-03-21T08:33:37.141Z,28.11
2018-03-21T08:34:37.133Z,28.40
2018-03-21T08:35:37.134Z,28.40
2018-03-21T08:36:37.124Z,28.20
2018-03-21T08:37:37.123Z,28.40
2018-03-21T08:38:37.121Z,28.49
2018-03-21T08:39:37.109Z,28.40
2018-03-21T08:40:37.110Z,28.30
2018-03-21T08:41:37.115Z,28.40
2018-03-21T08:42:37.096Z,28.30
2018-03-21T08:43:37.096Z,28.69
2018-03-21T08:44:37.085Z,28.30
2018-03-21T08:45:37.080Z,28.20
2018-03-21T08:46:37.071Z,28.20
2018-03-21T08:47:37.075Z,28.20
2018-03-21T08:48:37.060Z,28.11
2018-03-21T08:49:37.061Z,28.11
2018-03-21T08:50:37.055Z,28.11
2018-03-21T08:51:37.041Z,28.40
2018-03-21T08:52:37.041Z,28.30
2018-03-21T08:53:37.034Z,28.30
2018-03-21T08:54:37.047Z,28.49
2018-03-21T08:55:37.085Z,28.20
2018-03-21T08:56:37.025Z,28.30
2018-03-21T08:57:37.012Z,28.30
2018-03-21T08:58:37.007Z,28.20
2018-03-21T08:59:37.002Z,28.30
2018-03-21T09:00:36.991Z,28.49
2018-03-21T09:01:36.992Z,28.30
2018-03-21T09:02:36.981Z,28.20
2018-03-21T09:03:36.978Z,28.30
2018-03-21T09:04:37.001Z,28.30
2018-03-21T09:05:36.962Z,28.30
2018-03-21T09:06:36.971Z,28.30
2018-03-21T09:07:36.959Z,28.30
2018-03-21T09:08:36.974Z,28.30
2018-03-21T09:09:36.971Z,28.49
2018-03-21T09:10:36.942Z,28.20
2018-03-21T09:11:36.940Z,28.20
2018-03-21T09:12:36.933Z,28.22
2018-03-21T09:13:36.921Z,28.31
2018-03-21T09:14:36.916Z,28.40
2018-03-21T09:15:36.918Z,28.70
2018-03-21T09:16:36.911Z,28.59
2018-03-21T09:17:36.904Z,28.30
2018-03-21T09:18:36.905Z,28.41
2018-03-21T09:19:36.893Z,28.40
2018-03-21T09:20:36.912Z,28.31
2018-03-21T09:21:36.882Z,28.20
2018-03-21T09:22:36.876Z,28.20
2018-03-21T09:23:36.865Z,28.30
2018-03-21T09:24:36.864Z,28.30
2018-03-21T09:25:36.859Z,27.93
2018-03-21T09:26:36.864Z,28.40
2018-03-21T09:27:36.848Z,28.40
2018-03-21T09:28:36.845Z,28.30
2018-03-21T09:29:36.836Z,28.22
2018-03-21T09:30:36.832Z,28.30
2018-03-21T09:31:36.822Z,28.31
2018-03-21T09:32:36.822Z,28.30
2018-03-21T09:33:36.829Z,28.30
2018-03-21T09:34:36.819Z,28.22
2018-03-21T09:35:36.806Z,28.30
2018-03-21T09:36:36.797Z,28.20
2018-03-21T09:37:36.792Z,28.20
2018-03-21T09:38:36.794Z,28.30
2018-03-21T09:39:36.783Z,28.40
2018-03-21T09:40:36.795Z,28.20
2018-03-21T09:41:36.760Z,28.30
2018-03-21T09:42:36.771Z,28.30
2018-03-21T09:43:36.760Z,28.41
2018-03-21T09:44:36.749Z,28.20
2018-03-21T09:45:36.752Z,28.30
2018-03-21T09:46:36.745Z,28.30
2018-03-21T09:47:36.752Z,28.40
2018-03-21T09:48:36.786Z,28.31
2018-03-21T09:49:36.724Z,28.30
2018-03-21T09:50:36.723Z,28.20
2018-03-21T09:51:36.721Z,28.49
2018-03-21T09:52:36.717Z,28.02
2018-03-21T09:53:36.701Z,28.11
2018-03-21T09:54:36.706Z,28.30
2018-03-21T09:55:36.702Z,28.20
2018-03-21T09:56:36.698Z,28.30
2018-03-21T09:57:36.736Z,28.20
2018-03-21T09:58:36.695Z,28.20
2018-03-21T09:59:36.680Z,28.30
2018-03-21T10:00:36.678Z,28.30
2018-03-21T10:01:36.660Z,28.30
2018-03-21T10:02:36.666Z,28.40
2018-03-21T10:03:36.660Z,28.40
2018-03-21T10:04:36.664Z,28.30
2018-03-21T10:05:36.661Z,28.40
2018-03-21T10:06:36.638Z,28.11
2018-03-21T10:07:36.638Z,28.49
2018-03-21T10:08:36.624Z,28.30
2018-03-21T10:09:36.617Z,28.11
2018-03-21T10:10:36.637Z,28.30
2018-03-21T10:11:36.614Z,28.11
2018-03-21T10:12:36.607Z,28.20
2018-03-21T10:13:36.604Z,28.11
2018-03-21T10:14:36.602Z,28.49
2018-03-21T10:15:36.588Z,28.59
2018-03-21T10:16:36.582Z,28.40
2018-03-21T10:17:36.583Z,28.30
2018-03-21T10:18:36.581Z,28.49
2018-03-21T10:19:36.576Z,28.20
2018-03-21T10:20:36.570Z,28.40
2018-03-21T10:21:36.553Z,28.40
2018-03-21T10:22:36.548Z,28.30
2018-03-21T10:23:36.553Z,28.40
2018-03-21T10:24:36.556Z,28.30
2018-03-21T10:25:36.539Z,28.40
2018-03-21T10:26:36.556Z,28.59
2018-03-21T10:27:36.518Z,28.11
2018-03-21T10:28:36.523Z,28.40
2018-03-21T10:29:36.527Z,28.30
2018-03-21T10:30:36.509Z,28.20
2018-03-21T10:31:36.521Z,28.20
2018-03-21T10:32:36.503Z,28.49
2018-03-21T10:33:36.494Z,28.30
2018-03-21T10:34:36.503Z,28.30
2018-03-21T10:35:36.483Z,28.59
2018-03-21T10:36:36.475Z,28.30
2018-03-21T10:37:36.469Z,28.59
2018-03-21T10:38:36.482Z,28.20
2018-03-21T10:39:36.465Z,28.59
2018-03-21T10:40:36.462Z,28.49
2018-03-21T10:41:36.457Z,28.30
2018-03-21T10:42:36.453Z,28.20
2018-03-21T10:43:36.442Z,28.30
2018-03-21T10:44:36.432Z,28.30
2018-03-21T10:45:36.432Z,28.30
2018-03-21T10:46:36.413Z,28.20
2018-03-21T10:47:36.433Z,28.30
2018-03-21T10:48:36.414Z,28.40
2018-03-21T10:49:36.413Z,28.20
2018-03-21T10:50:36.413Z,28.11
2018-03-21T10:51:36.402Z,28.30
2018-03-21T10:52:39.036Z,28.49
2018-03-21T10:53:36.393Z,28.30
2018-03-21T10:54:36.389Z,28.30
2018-03-21T10:55:36.379Z,28.40
2018-03-21T10:56:36.362Z,28.30
2018-03-21T10:57:36.373Z,27.92
2018-03-21T10:58:36.358Z,28.30
2018-03-21T10:59:36.353Z,28.40
2018-03-21T11:00:36.344Z,28.30
2018-03-21T11:01:36.344Z,28.30
2018-03-21T11:02:36.355Z,28.31
2018-03-21T11:03:36.333Z,28.30
2018-03-21T11:04:36.327Z,28.20
2018-03-21T11:05:36.322Z,28.49
2018-03-21T11:06:36.319Z,28.13
2018-03-21T11:07:36.305Z,28.40
2018-03-21T11:08:36.303Z,28.31
2018-03-21T11:09:36.297Z,28.20
2018-03-21T11:10:36.293Z,28.20
2018-03-21T11:11:36.350Z,28.31
2018-03-21T11:12:36.278Z,28.20
2018-03-21T11:13:36.283Z,28.13
2018-03-21T11:14:36.265Z,28.13
2018-03-21T11:15:36.291Z,28.40
2018-03-21T11:16:36.261Z,28.31
2018-03-21T11:17:36.332Z,27.74
2018-03-21T11:18:36.247Z,28.20
2018-03-21T11:19:36.244Z,28.31
2018-03-21T11:20:36.234Z,28.22
2018-03-21T11:21:36.230Z,28.20
2018-03-21T11:22:36.222Z,28.22
2018-03-21T11:23:36.229Z,28.31
2018-03-21T11:24:36.231Z,28.13
2018-03-21T11:25:36.212Z,28.40
2018-03-21T11:26:36.212Z,28.41
2018-03-21T11:27:36.192Z,28.40
2018-03-21T11:28:36.197Z,28.31
2018-03-21T11:29:36.195Z,28.31
2018-03-21T11:30:36.193Z,28.31
2018-03-21T11:31:36.178Z,28.61
2018-03-21T11:32:36.174Z,28.31
2018-03-21T11:33:36.164Z,28.11
2018-03-21T11:34:36.168Z,28.30
2018-03-21T11:35:36.151Z,28.31
2018-03-21T11:36:36.153Z,28.30
2018-03-21T11:37:36.144Z,28.31
2018-03-21T11:38:36.143Z,28.02
2018-03-21T11:39:36.138Z,28.31
2018-03-21T11:40:36.127Z,28.41
2018-03-21T11:41:36.129Z,28.70
2018-03-21T11:42:36.120Z,28.13
2018-03-21T11:43:36.136Z,28.31
2018-03-21T11:44:36.098Z,28.22
2018-03-21T11:45:36.094Z,28.41
2018-03-21T11:46:36.108Z,28.31
2018-03-21T11:47:36.099Z,28.20
2018-03-21T11:48:36.124Z,28.41
2018-03-21T11:49:36.082Z,28.30
2018-03-21T11:50:36.078Z,28.20
2018-03-21T11:51:36.072Z,28.20
2018-03-21T11:52:36.065Z,28.30
2018-03-21T11:53:36.063Z,28.20
2018-03-21T11:54:36.058Z,28.30
2018-03-21T11:55:36.055Z,28.40
2018-03-21T11:56:36.050Z,28.20
2018-03-21T11:57:36.047Z,28.30
2018-03-21T11:58:36.041Z,28.30
2018-03-21T11:59:36.039Z,28.40
2018-03-21T12:00:36.024Z,28.30
2018-03-21T12:01:36.028Z,28.02
2018-03-21T12:02:36.015Z,28.20
2018-03-21T12:03:36.012Z,28.30
2018-03-21T12:04:36.017Z,28.30
2018-03-21T12:05:36.001Z,28.30
2018-03-21T12:06:35.999Z,28.49
2018-03-21T12:07:35.993Z,28.30
2018-03-21T12:08:36.070Z,28.30
2018-03-21T12:09:35.985Z,28.30
2018-03-21T12:10:35.957Z,28.40
2018-03-21T12:11:35.956Z,28.40
2018-03-21T12:12:35.954Z,28.02
2018-03-21T12:13:35.958Z,28.11
2018-03-21T12:14:36.007Z,28.20
2018-03-21T12:15:35.939Z,28.20
2018-03-21T12:16:35.935Z,28.30
2018-03-21T12:17:35.933Z,28.30
2018-03-21T12:18:35.930Z,28.11
2018-03-21T12:19:35.937Z,28.11
2018-03-21T12:20:35.918Z,28.02
2018-03-21T12:21:35.910Z,28.30
2018-03-21T12:22:35.917Z,28.30
2018-03-21T12:23:35.902Z,28.11
2018-03-21T12:24:35.884Z,28.20
2018-03-21T12:25:35.892Z,28.30
2018-03-21T12:26:35.890Z,28.40
2018-03-21T12:27:35.881Z,28.20
2018-03-21T12:28:35.891Z,28.40
2018-03-21T12:29:35.876Z,28.40
2018-03-21T12:30:35.880Z,28.11
2018-03-21T12:31:35.859Z,28.30
2018-03-21T12:32:35.845Z,28.40
2018-03-21T12:33:35.845Z,28.49
2018-03-21T12:34:35.839Z,27.92
2018-03-21T12:35:35.848Z,28.30
2018-03-21T12:36:35.833Z,28.20
2018-03-21T12:37:35.830Z,28.30
2018-03-21T12:38:35.828Z,28.30
2018-03-21T12:39:35.819Z,28.11
2018-03-21T12:40:35.820Z,28.30
2018-03-21T12:41:35.808Z,28.40
2018-03-21T12:42:35.793Z,28.49
2018-03-21T12:43:35.784Z,28.31
2018-03-21T12:44:35.809Z,28.40
2018-03-21T12:45:35.786Z,28.13
2018-03-21T12:46:35.784Z,28.11
2018-03-21T12:47:35.772Z,28.31
2018-03-21T12:48:35.784Z,28.41
2018-03-21T12:49:35.779Z,28.13
2018-03-21T12:50:35.769Z,28.11
2018-03-21T12:51:35.759Z,28.41
2018-03-21T12:52:35.745Z,28.51